Time;durP1;ratioP1;P1;durP2;ratioP2;P2;SDS_P1;SDS_P2;PMS_P1;PMS_P2;Temp;Humidity;BMP_temperature;BMP_pressure;BME280_temperature;BME280_humidity;BME280_pressure;Samples;Min_cycle;Max_cycle;Signal;HPM_P1;HPM_P2
2022/01/11 00:01:32;;;;;;;216.03;203.33;;;1.80;99.90;;;;;;4437997;32;20185;-64
2022/01/11 00:04:03;;;;;;;218.90;206.13;;;1.80;99.90;;;;;;4438589;32;20151;-66
2022/01/11 00:06:35;;;;;;;203.43;191.40;;;1.90;99.90;;;;;;4438447;32;20144;-63
2022/01/11 00:09:08;;;;;;;204.50;192.03;;;1.80;99.90;;;;;;4437054;32;20226;-63
2022/01/11 00:11:36;;;;;;;183.53;172.33;;;1.80;99.90;;;;;;4437949;32;20626;-65
2022/01/11 00:14:03;;;;;;;203.60;191.17;;;1.80;99.90;;;;;;4438460;32;20145;-63
2022/01/11 00:16:30;;;;;;;191.37;179.83;;;1.80;99.90;;;;;;4438122;32;20330;-67
2022/01/11 00:18:58;;;;;;;204.27;191.53;;;1.80;99.90;;;;;;4438032;32;20189;-65
2022/01/11 00:21:33;;;;;;;206.80;194.70;;;1.80;99.90;;;;;;4437593;32;20189;-65
2022/01/11 00:26:45;;;;;;;199.50;187.67;;;1.80;99.90;;;;;;4437390;32;20293;-63
2022/01/11 00:29:15;;;;;;;191.93;180.30;;;1.70;99.90;;;;;;4437838;32;20202;-63
2022/01/11 00:31:44;;;;;;;203.20;190.97;;;1.80;99.90;;;;;;4437344;32;20166;-65
2022/01/11 00:34:13;;;;;;;197.60;185.50;;;1.80;99.90;;;;;;4437625;32;20193;-65
2022/01/11 00:36:42;;;;;;;214.53;201.70;;;1.80;99.90;;;;;;4438045;32;20503;-63
2022/01/11 00:39:10;;;;;;;209.53;196.70;;;1.80;99.90;;;;;;4438483;32;20132;-68
2022/01/11 00:41:38;;;;;;;227.93;214.17;;;1.80;99.90;;;;;;4438338;32;20518;-64
2022/01/11 00:44:10;;;;;;;229.03;215.57;;;1.90;99.90;;;;;;4438756;32;20131;-67
2022/01/11 00:46:38;;;;;;;242.07;227.93;;;1.90;99.90;;;;;;4439227;32;20168;-64
2022/01/11 00:49:07;;;;;;;224.77;211.87;;;1.90;99.90;;;;;;4438672;32;20135;-66
2022/01/11 00:51:34;;;;;;;235.50;222.07;;;1.90;99.90;;;;;;4437202;32;20143;-63
2022/01/11 00:54:01;;;;;;;241.40;227.43;;;1.90;99.90;;;;;;4437088;32;20155;-66
2022/01/11 00:56:28;;;;;;;241.37;227.33;;;1.90;99.90;;;;;;4438530;32;20182;-64
2022/01/11 00:58:54;;;;;;;229.03;215.03;;;2.00;99.90;;;;;;4438126;32;20533;-65
2022/01/11 01:01:23;;;;;;;241.57;227.40;;;1.90;99.90;;;;;;4437286;32;20510;-64
2022/01/11 01:03:50;;;;;;;233.83;218.93;;;2.00;99.90;;;;;;4437315;32;20151;-64
2022/01/11 01:06:17;;;;;;;225.67;212.23;;;2.00;99.90;;;;;;4437694;32;20144;-63
2022/01/11 01:08:45;;;;;;;225.70;211.23;;;2.10;99.90;;;;;;4437486;32;20218;-63
2022/01/11 01:11:12;;;;;;;223.80;210.40;;;2.00;99.90;;;;;;4436667;32;20139;-66
2022/01/11 01:13:38;;;;;;;220.27;206.33;;;2.00;99.90;;;;;;4437351;32;20474;-64
2022/01/11 01:16:08;;;;;;;221.80;208.77;;;2.00;99.90;;;;;;4437474;32;20162;-65
2022/01/11 01:18:36;;;;;;;208.17;194.63;;;1.90;99.90;;;;;;4437003;32;20178;-65
2022/01/11 01:21:04;;;;;;;207.63;194.97;;;2.00;99.90;;;;;;4436898;32;20178;-66
2022/01/11 01:23:31;;;;;;;238.40;224.13;;;2.00;99.90;;;;;;4436897;32;20601;-68
2022/01/11 01:25:59;;;;;;;217.40;204.87;;;1.90;99.90;;;;;;4437220;32;20241;-62
2022/01/11 01:28:26;;;;;;;239.23;225.03;;;1.90;99.90;;;;;;4439675;32;20147;-64
2022/01/11 01:30:55;;;;;;;202.93;190.23;;;2.00;99.90;;;;;;4436515;32;20162;-67
2022/01/11 01:33:22;;;;;;;207.80;194.33;;;2.00;99.90;;;;;;4435499;32;20188;-64
2022/01/11 01:35:55;;;;;;;240.27;225.47;;;2.00;99.90;;;;;;4441100;32;20606;-65
2022/01/11 01:38:25;;;;;;;228.10;213.40;;;2.00;99.90;;;;;;4445139;32;20182;-63
2022/01/11 01:40:58;;;;;;;225.67;212.00;;;2.00;99.90;;;;;;4436601;32;20155;-61
2022/01/11 01:43:28;;;;;;;217.80;204.23;;;2.00;99.90;;;;;;4437430;32;20132;-62
2022/01/11 01:45:58;;;;;;;219.17;205.73;;;2.10;99.90;;;;;;4436972;32;20210;-64
2022/01/11 01:48:30;;;;;;;214.67;201.30;;;2.10;99.90;;;;;;4436419;32;20161;-63
2022/01/11 01:50:58;;;;;;;216.17;202.80;;;2.10;99.90;;;;;;4437338;32;20133;-64
2022/01/11 01:53:29;;;;;;;213.53;199.63;;;2.10;99.90;;;;;;4438741;32;20127;-64
2022/01/11 01:55:56;;;;;;;213.20;200.43;;;2.10;99.90;;;;;;4436416;32;20214;-66
2022/01/11 01:58:24;;;;;;;208.60;195.80;;;2.10;99.90;;;;;;4435952;32;20160;-63
2022/01/11 02:00:55;;;;;;;208.90;195.90;;;2.10;99.90;;;;;;4436522;32;20183;-63
2022/01/11 02:03:27;;;;;;;223.70;210.50;;;2.10;99.90;;;;;;4436427;32;20167;-62
2022/01/11 02:05:56;;;;;;;200.13;187.93;;;2.20;99.90;;;;;;4436934;32;20143;-66
2022/01/11 02:08:27;;;;;;;210.13;196.77;;;2.10;99.90;;;;;;4435745;32;20235;-65
2022/01/11 02:10:54;;;;;;;188.43;176.87;;;2.00;99.90;;;;;;4436373;32;20155;-64
2022/01/11 02:13:24;;;;;;;189.53;177.57;;;2.00;99.90;;;;;;4441023;32;20226;-64
2022/01/11 02:15:52;;;;;;;189.63;177.90;;;1.90;99.90;;;;;;4451093;32;20167;-65
2022/01/11 02:18:22;;;;;;;172.97;162.17;;;1.90;99.90;;;;;;4436393;32;20140;-64
2022/01/11 02:20:58;;;;;;;186.77;175.33;;;1.90;99.90;;;;;;4436460;32;20131;-64
2022/01/11 02:23:27;;;;;;;194.93;183.47;;;1.90;99.90;;;;;;4435732;32;20139;-63
2022/01/11 02:25:58;;;;;;;193.07;180.87;;;1.90;99.90;;;;;;4436046;32;20522;-62
2022/01/11 02:28:28;;;;;;;177.00;165.37;;;1.90;99.90;;;;;;4436329;32;20559;-63
2022/01/11 02:30:57;;;;;;;196.50;184.33;;;1.90;99.90;;;;;;4436515;32;20613;-65
2022/01/11 02:33:34;;;;;;;198.63;186.60;;;1.90;99.90;;;;;;4435998;32;20485;-64
2022/01/11 02:36:07;;;;;;;203.77;191.30;;;2.00;99.90;;;;;;4436800;32;20226;-65
2022/01/11 02:38:35;;;;;;;190.13;178.20;;;2.00;99.90;;;;;;4436116;32;20226;-65
2022/01/11 02:41:08;;;;;;;196.73;184.27;;;2.00;99.90;;;;;;4435534;32;20577;-64
2022/01/11 02:43:46;;;;;;;202.40;189.87;;;2.00;99.90;;;;;;4437201;32;20478;-63
2022/01/11 02:46:13;;;;;;;190.60;178.83;;;1.90;99.90;;;;;;4436188;32;20143;-65
2022/01/11 02:48:45;;;;;;;205.23;193.23;;;1.90;99.90;;;;;;4436142;32;20230;-67
2022/01/11 02:51:17;;;;;;;205.30;193.27;;;1.90;99.90;;;;;;4436391;32;20642;-67
2022/01/11 02:53:45;;;;;;;204.63;192.30;;;1.90;99.90;;;;;;4435889;32;20156;-66
2022/01/11 02:56:17;;;;;;;195.13;183.13;;;1.90;99.90;;;;;;4436157;32;20147;-64
2022/01/11 02:58:46;;;;;;;208.33;195.63;;;1.90;99.90;;;;;;4435859;32;20712;-64
2022/01/11 03:01:16;;;;;;;199.30;187.03;;;1.90;99.90;;;;;;4435607;32;20508;-65
2022/01/11 03:03:43;;;;;;;198.20;186.17;;;1.90;99.90;;;;;;4436921;32;20143;-63
2022/01/11 03:06:14;;;;;;;194.27;182.27;;;1.90;99.90;;;;;;4435761;32;20513;-65
2022/01/11 03:08:46;;;;;;;193.97;181.57;;;1.90;99.90;;;;;;4435960;32;20145;-64
2022/01/11 03:11:14;;;;;;;186.80;174.27;;;1.90;99.90;;;;;;4435105;32;20139;-64
2022/01/11 03:13:44;;;;;;;189.17;177.17;;;2.00;99.90;;;;;;4436608;32;20688;-63
2022/01/11 03:16:15;;;;;;;176.13;164.43;;;1.80;99.90;;;;;;4435516;32;20245;-66
2022/01/11 03:18:43;;;;;;;167.37;156.10;;;1.90;99.90;;;;;;4435643;32;20484;-62
2022/01/11 03:21:09;;;;;;;171.20;159.60;;;1.80;99.90;;;;;;4435980;32;20157;-64
2022/01/11 03:23:40;;;;;;;183.53;172.30;;;1.80;99.90;;;;;;4435557;32;20515;-64
2022/01/11 03:26:09;;;;;;;169.63;158.53;;;1.80;99.90;;;;;;4435496;32;20159;-65
2022/01/11 03:28:38;;;;;;;170.83;159.77;;;1.70;99.90;;;;;;4434663;32;20139;-62
2022/01/11 03:31:05;;;;;;;169.83;158.50;;;1.70;99.90;;;;;;4435764;32;20257;-63
2022/01/11 03:33:34;;;;;;;182.93;171.30;;;1.70;99.90;;;;;;4434670;32;20225;-65
2022/01/11 03:36:01;;;;;;;188.17;176.13;;;1.70;99.90;;;;;;4435810;32;20162;-64
2022/01/11 03:38:30;;;;;;;199.90;187.90;;;1.70;99.90;;;;;;4436118;32;20472;-62
2022/01/11 03:40:58;;;;;;;175.00;163.17;;;1.70;99.90;;;;;;4435559;32;20136;-66
2022/01/11 03:43:26;;;;;;;180.23;168.57;;;1.70;99.90;;;;;;4434827;32;20238;-68
2022/01/11 03:45:55;;;;;;;171.93;161.37;;;1.80;99.90;;;;;;4437223;32;20155;-65
2022/01/11 03:48:24;;;;;;;176.73;165.33;;;1.70;99.90;;;;;;4435211;32;20268;-66
2022/01/11 03:50:54;;;;;;;153.47;143.00;;;1.60;99.90;;;;;;4435173;32;20263;-66
2022/01/11 03:53:26;;;;;;;160.57;150.03;;;1.60;99.90;;;;;;4435874;32;20233;-64
2022/01/11 03:56:11;;;;;;;180.23;168.87;;;1.60;99.90;;;;;;4436205;32;20454;-63
2022/01/11 03:58:39;;;;;;;184.03;172.13;;;1.70;99.90;;;;;;4435686;32;20207;-63
2022/01/11 04:01:06;;;;;;;178.83;167.40;;;1.70;99.90;;;;;;4435369;32;20148;-64
2022/01/11 04:03:33;;;;;;;180.50;169.13;;;1.70;99.90;;;;;;4435499;32;20179;-66
2022/01/11 04:06:00;;;;;;;190.13;178.07;;;1.70;99.90;;;;;;4435093;32;20233;-63
2022/01/11 04:08:27;;;;;;;180.67;169.13;;;1.70;99.90;;;;;;4434809;32;20163;-67
2022/01/11 04:10:56;;;;;;;171.70;159.90;;;1.80;99.90;;;;;;4435655;32;20215;-67
2022/01/11 04:13:25;;;;;;;167.17;156.23;;;1.70;99.90;;;;;;4437706;32;20168;-62
2022/01/11 04:15:53;;;;;;;178.17;166.03;;;1.70;99.90;;;;;;4444578;32;20205;-67
2022/01/11 04:18:20;;;;;;;173.07;160.97;;;1.70;99.90;;;;;;4438397;32;20163;-64
2022/01/11 04:20:47;;;;;;;166.50;155.30;;;1.70;99.90;;;;;;4435540;32;20459;-65
2022/01/11 04:23:17;;;;;;;186.57;173.70;;;1.70;99.90;;;;;;4434697;32;20177;-65
2022/01/11 04:25:44;;;;;;;174.43;161.93;;;1.70;99.90;;;;;;4434716;32;20143;-63
2022/01/11 04:28:11;;;;;;;169.27;157.20;;;1.70;99.90;;;;;;4437095;32;20161;-67
2022/01/11 04:30:38;;;;;;;179.83;168.03;;;1.70;99.90;;;;;;4437896;32;20218;-66
2022/01/11 04:33:08;;;;;;;174.90;162.67;;;1.80;99.90;;;;;;4438439;32;20498;-66
2022/01/11 04:35:41;;;;;;;178.87;166.13;;;1.80;99.90;;;;;;4438132;32;20479;-64
2022/01/11 04:38:13;;;;;;;169.33;156.27;;;1.80;99.90;;;;;;4438027;32;20148;-64
2022/01/11 04:40:40;;;;;;;159.97;148.40;;;1.80;99.90;;;;;;4438372;32;20539;-63
2022/01/11 04:43:09;;;;;;;192.10;179.03;;;1.80;99.90;;;;;;4438229;32;20219;-64
2022/01/11 04:45:36;;;;;;;185.60;173.17;;;1.80;99.90;;;;;;4438975;32;20184;-63
2022/01/11 04:48:03;;;;;;;172.17;159.63;;;1.80;99.90;;;;;;4437571;32;20163;-63
2022/01/11 04:50:33;;;;;;;187.60;173.77;;;1.80;99.90;;;;;;4437604;32;20575;-66
2022/01/11 04:53:04;;;;;;;187.03;174.23;;;1.80;99.90;;;;;;4438070;32;20559;-62
2022/01/11 04:55:31;;;;;;;189.97;176.63;;;1.80;99.90;;;;;;4437805;32;20180;-63
2022/01/11 04:57:59;;;;;;;170.13;157.20;;;1.90;99.90;;;;;;4437812;32;20147;-63
2022/01/11 05:00:27;;;;;;;168.13;155.33;;;1.80;99.90;;;;;;4436913;32;20772;-66
2022/01/11 05:02:56;;;;;;;172.17;159.33;;;1.80;99.90;;;;;;4441550;32;20138;-65
2022/01/11 05:05:23;;;;;;;162.87;150.60;;;1.80;99.90;;;;;;4437572;32;20468;-64
2022/01/11 05:07:52;;;;;;;172.33;160.23;;;1.80;99.90;;;;;;4438864;32;20178;-63
2022/01/11 05:10:22;;;;;;;149.43;138.43;;;1.80;99.90;;;;;;4437067;32;20139;-65
2022/01/11 05:12:49;;;;;;;175.47;162.93;;;1.70;99.90;;;;;;4437302;32;20609;-65
2022/01/11 05:15:16;;;;;;;188.30;175.03;;;1.70;99.90;;;;;;4438127;32;20551;-62
2022/01/11 05:17:43;;;;;;;182.50;169.27;;;1.70;99.90;;;;;;4437546;32;20163;-61
2022/01/11 05:20:12;;;;;;;194.07;180.40;;;1.70;99.90;;;;;;4437887;32;20170;-63
2022/01/11 05:22:39;;;;;;;179.13;166.50;;;1.80;99.90;;;;;;4438254;32;20204;-62
2022/01/11 05:25:11;;;;;;;188.47;175.63;;;1.70;99.90;;;;;;4437111;32;20143;-64
2022/01/11 05:27:39;;;;;;;186.93;173.80;;;1.70;99.90;;;;;;4436984;32;20144;-63
2022/01/11 05:30:08;;;;;;;177.97;165.30;;;1.70;99.90;;;;;;4438658;32;20159;-62
2022/01/11 05:32:35;;;;;;;182.67;169.40;;;1.80;99.90;;;;;;4444369;32;20573;-65
2022/01/11 05:35:02;;;;;;;169.13;156.77;;;1.80;99.90;;;;;;4438665;32;20182;-62
2022/01/11 05:37:29;;;;;;;163.70;150.93;;;1.80;99.90;;;;;;4437388;32;20220;-64
2022/01/11 05:39:58;;;;;;;157.83;146.10;;;1.70;99.90;;;;;;4436452;32;20171;-66
2022/01/11 05:42:26;;;;;;;162.97;150.30;;;1.70;99.90;;;;;;4437344;32;20135;-64
2022/01/11 05:44:53;;;;;;;155.20;143.13;;;1.60;99.90;;;;;;4436981;32;20579;-64
2022/01/11 05:47:22;;;;;;;183.93;170.93;;;1.60;99.90;;;;;;4436772;32;20234;-61
2022/01/11 05:49:49;;;;;;;168.97;156.70;;;1.60;99.90;;;;;;4436956;32;20156;-62
2022/01/11 05:52:16;;;;;;;177.07;164.43;;;1.60;99.90;;;;;;4436903;32;20223;-67
2022/01/11 05:54:43;;;;;;;179.07;165.70;;;1.60;99.90;;;;;;4437040;32;20196;-65
2022/01/11 05:57:10;;;;;;;188.37;175.27;;;1.60;99.90;;;;;;4435961;32;20156;-62
2022/01/11 05:59:38;;;;;;;176.97;163.80;;;1.80;99.90;;;;;;4435553;32;20219;-63
2022/01/11 06:02:05;;;;;;;178.40;164.93;;;1.70;99.90;;;;;;4441613;32;20139;-63
2022/01/11 06:04:32;;;;;;;176.80;163.97;;;1.80;99.90;;;;;;4436785;32;20190;-63
2022/01/11 06:06:59;;;;;;;187.67;173.90;;;1.80;99.90;;;;;;4436285;32;20214;-64
2022/01/11 06:09:27;;;;;;;172.13;159.63;;;1.80;99.90;;;;;;4436813;32;20222;-62
2022/01/11 06:11:55;;;;;;;169.23;156.40;;;1.70;99.90;;;;;;4436508;32;20541;-64
2022/01/11 06:14:24;;;;;;;162.50;149.93;;;1.70;99.90;;;;;;4444885;32;20186;-68
2022/01/11 06:16:53;;;;;;;155.20;143.53;;;1.70;99.90;;;;;;4435855;32;20161;-62
2022/01/11 06:19:20;;;;;;;170.87;158.03;;;1.70;99.90;;;;;;4435540;32;20226;-64
2022/01/11 06:21:46;;;;;;;174.40;162.40;;;1.60;99.90;;;;;;4435749;32;20143;-62
2022/01/11 06:24:13;;;;;;;172.77;160.03;;;1.70;99.90;;;;;;4435747;32;20527;-63
2022/01/11 06:26:41;;;;;;;171.07;158.43;;;1.70;99.90;;;;;;4436942;32;20143;-66
2022/01/11 06:29:08;;;;;;;169.43;157.67;;;1.60;99.90;;;;;;4434896;32;20474;-63
2022/01/11 06:31:36;;;;;;;148.63;137.23;;;1.70;99.90;;;;;;4435875;32;20159;-63
2022/01/11 06:34:04;;;;;;;149.17;138.27;;;1.60;99.90;;;;;;4435396;32;20274;-63
2022/01/11 06:36:34;;;;;;;145.90;135.30;;;1.50;99.90;;;;;;4437045;32;20241;-61
2022/01/11 06:39:03;;;;;;;152.47;141.23;;;1.40;99.90;;;;;;4434376;32;20199;-62
2022/01/11 06:41:30;;;;;;;155.57;144.23;;;1.40;99.90;;;;;;4435174;32;20167;-61
2022/01/11 06:44:00;;;;;;;167.57;155.50;;;1.40;99.90;;;;;;4435117;32;20206;-64
2022/01/11 06:46:28;;;;;;;167.87;155.67;;;1.50;99.90;;;;;;4435134;32;20566;-63
2022/01/11 06:49:00;;;;;;;150.37;139.03;;;1.40;99.90;;;;;;4437681;32;20542;-64
2022/01/11 06:51:28;;;;;;;153.37;141.80;;;1.40;99.90;;;;;;4435659;32;20166;-62
2022/01/11 06:53:55;;;;;;;152.07;139.87;;;1.50;99.90;;;;;;4435551;32;20214;-62
2022/01/11 06:56:24;;;;;;;151.27;139.63;;;1.50;99.90;;;;;;4437055;32;20204;-64
2022/01/11 06:59:00;;;;;;;156.83;145.17;;;1.50;99.90;;;;;;4437311;32;20166;-62
2022/01/11 07:01:27;;;;;;;151.70;140.43;;;1.50;99.90;;;;;;4434549;32;20182;-62
2022/01/11 07:03:53;;;;;;;147.67;136.77;;;1.50;99.90;;;;;;4435214;32;20229;-62
2022/01/11 07:06:20;;;;;;;153.63;141.37;;;1.50;99.90;;;;;;4434742;32;20153;-62
2022/01/11 07:08:48;;;;;;;152.33;141.07;;;1.40;99.90;;;;;;4434648;32;20158;-62
2022/01/11 07:11:15;;;;;;;157.80;146.23;;;1.40;99.90;;;;;;4435332;32;20230;-62
2022/01/11 07:13:43;;;;;;;154.70;143.40;;;1.40;99.90;;;;;;4433266;32;20180;-62
2022/01/11 07:16:14;;;;;;;146.43;134.80;;;1.40;99.90;;;;;;4431818;32;20147;-63
2022/01/11 07:18:45;;;;;;;145.93;134.63;;;1.30;99.90;;;;;;4435091;32;20131;-65
2022/01/11 07:21:11;;;;;;;155.77;144.43;;;1.40;99.90;;;;;;4435948;32;20260;-67
2022/01/11 07:23:41;;;;;;;155.53;143.27;;;1.30;99.90;;;;;;4435533;32;20146;-62
2022/01/11 07:26:09;;;;;;;163.80;151.80;;;1.20;99.90;;;;;;4434467;32;20167;-63
2022/01/11 07:28:37;;;;;;;167.20;155.67;;;1.30;99.90;;;;;;4436609;32;20233;-65
2022/01/11 07:31:06;;;;;;;153.57;142.87;;;1.30;99.90;;;;;;4435045;32;20174;-63
2022/01/11 07:33:32;;;;;;;155.57;144.30;;;1.20;99.90;;;;;;4435655;32;20209;-63
2022/01/11 07:36:00;;;;;;;143.63;132.67;;;1.20;99.90;;;;;;4436913;32;20174;-65
2022/01/11 07:38:43;;;;;;;150.67;139.17;;;1.30;99.90;;;;;;4435741;32;20139;-62
2022/01/11 07:41:15;;;;;;;147.57;136.70;;;1.30;99.90;;;;;;4435891;32;20178;-63
2022/01/11 07:43:42;;;;;;;138.10;127.97;;;1.30;99.90;;;;;;4435957;32;20166;-66
2022/01/11 07:46:18;;;;;;;142.80;132.63;;;1.30;99.90;;;;;;4436434;32;20139;-66
2022/01/11 07:48:45;;;;;;;139.10;128.73;;;1.30;99.90;;;;;;4436133;32;20222;-64
2022/01/11 07:51:12;;;;;;;143.87;132.87;;;1.30;99.90;;;;;;4435750;32;20127;-67
2022/01/11 07:53:48;;;;;;;138.37;128.67;;;1.30;99.90;;;;;;4436379;32;20185;-63
2022/01/11 07:56:16;;;;;;;144.93;134.67;;;1.30;99.90;;;;;;4435544;32;20166;-63
2022/01/11 07:58:47;;;;;;;135.50;125.77;;;1.30;99.90;;;;;;4435659;32;20140;-63
2022/01/11 08:01:14;;;;;;;138.87;128.20;;;1.30;99.90;;;;;;4437063;32;20235;-64
2022/01/11 08:03:45;;;;;;;148.13;137.20;;;1.30;99.90;;;;;;4439233;32;20155;-62
2022/01/11 08:06:12;;;;;;;138.90;128.77;;;1.30;99.90;;;;;;4438679;32;20246;-62
2022/01/11 08:08:39;;;;;;;139.57;129.53;;;1.30;99.90;;;;;;4438708;32;20470;-62
2022/01/11 08:11:17;;;;;;;146.63;136.30;;;1.30;99.90;;;;;;4439339;32;20551;-63
2022/01/11 08:13:44;;;;;;;135.17;125.17;;;1.30;99.90;;;;;;4438592;32;20134;-63
2022/01/11 08:16:11;;;;;;;142.67;132.50;;;1.30;99.90;;;;;;4439703;32;20131;-65
2022/01/11 08:18:42;;;;;;;146.53;136.73;;;1.30;99.90;;;;;;4438445;32;20211;-66
2022/01/11 08:21:09;;;;;;;145.70;135.03;;;1.40;99.90;;;;;;4438882;32;20131;-67
2022/01/11 08:23:36;;;;;;;135.57;125.93;;;1.40;99.90;;;;;;4438426;32;20522;-63
2022/01/11 08:26:05;;;;;;;151.33;141.23;;;1.50;99.90;;;;;;4439425;32;20151;-63
2022/01/11 08:28:34;;;;;;;136.43;127.00;;;1.50;99.90;;;;;;4438441;32;20184;-66
2022/01/11 08:31:03;;;;;;;144.90;134.30;;;1.50;99.90;;;;;;4438517;32;20166;-63
2022/01/11 08:33:30;;;;;;;140.47;130.37;;;1.50;99.90;;;;;;4439504;32;20158;-62
2022/01/11 08:35:57;;;;;;;139.47;129.97;;;1.50;99.90;;;;;;4438721;32;20131;-63
2022/01/11 08:38:23;;;;;;;123.37;114.37;;;1.50;99.90;;;;;;4438406;32;20186;-63
2022/01/11 08:40:52;;;;;;;131.90;122.63;;;1.50;99.90;;;;;;4438167;32;20174;-62
2022/01/11 08:43:19;;;;;;;133.03;123.57;;;1.50;99.90;;;;;;4438291;32;20139;-61
2022/01/11 08:45:48;;;;;;;133.37;124.13;;;1.50;99.90;;;;;;4439685;32;20135;-63
2022/01/11 08:48:17;;;;;;;134.37;125.67;;;1.40;99.90;;;;;;4438286;32;20488;-62
2022/01/11 08:50:46;;;;;;;137.60;128.13;;;1.40;99.90;;;;;;4437851;32;20171;-63
2022/01/11 08:53:15;;;;;;;131.80;122.73;;;1.40;99.90;;;;;;4439069;32;20133;-62
2022/01/11 08:55:51;;;;;;;125.20;116.20;;;1.40;99.90;;;;;;4437646;32;20173;-64
2022/01/11 08:58:21;;;;;;;132.57;123.17;;;1.30;99.90;;;;;;4439576;32;20523;-63
2022/01/11 09:00:50;;;;;;;128.37;119.20;;;1.30;99.90;;;;;;4438084;32;20132;-62
2022/01/11 09:03:23;;;;;;;121.30;112.83;;;1.40;99.90;;;;;;4437611;32;20151;-62
2022/01/11 09:05:55;;;;;;;128.77;119.57;;;1.50;99.90;;;;;;4437776;32;20151;-65
2022/01/11 09:08:22;;;;;;;123.77;113.83;;;1.50;99.90;;;;;;4438710;32;20131;-62
2022/01/11 09:10:52;;;;;;;127.20;117.20;;;1.60;99.90;;;;;;4437738;32;20196;-62
2022/01/11 09:13:20;;;;;;;130.40;121.43;;;1.70;99.90;;;;;;4438976;32;20131;-63
2022/01/11 09:15:47;;;;;;;132.20;122.60;;;1.90;99.90;;;;;;4437620;32;20227;-63
2022/01/11 09:18:15;;;;;;;135.73;126.03;;;1.80;99.90;;;;;;4439393;32;20132;-60
2022/01/11 09:20:42;;;;;;;120.97;112.17;;;1.90;99.90;;;;;;4437737;32;20136;-63
2022/01/11 09:23:13;;;;;;;127.67;118.70;;;1.90;99.90;;;;;;4437626;32;20135;-63
2022/01/11 09:25:40;;;;;;;129.67;120.93;;;2.00;99.90;;;;;;4437808;32;20132;-65
2022/01/11 09:28:08;;;;;;;117.60;108.80;;;2.00;99.90;;;;;;4437449;32;20136;-63
2022/01/11 09:30:35;;;;;;;119.07;110.23;;;2.10;99.90;;;;;;4437811;32;20150;-62
2022/01/11 09:33:01;;;;;;;119.27;110.50;;;2.10;99.90;;;;;;4437195;32;20464;-64
2022/01/11 09:35:31;;;;;;;113.93;105.50;;;2.10;99.90;;;;;;4437398;32;20177;-64
2022/01/11 09:37:58;;;;;;;124.33;115.13;;;2.20;99.90;;;;;;4439040;32;20136;-65
2022/01/11 09:40:25;;;;;;;108.00;100.20;;;2.20;99.90;;;;;;4437227;32;20135;-64
2022/01/11 09:42:52;;;;;;;115.40;107.07;;;2.30;99.90;;;;;;4437495;32;20131;-62
2022/01/11 09:45:26;;;;;;;111.63;103.10;;;2.30;99.90;;;;;;4437328;32;20169;-63
2022/01/11 09:47:54;;;;;;;111.00;103.27;;;2.30;99.90;;;;;;4437173;32;20209;-63
2022/01/11 09:50:23;;;;;;;110.50;102.53;;;2.40;99.90;;;;;;4436958;32;20633;-64
2022/01/11 09:52:54;;;;;;;111.37;103.40;;;2.40;99.90;;;;;;4436990;32;20147;-64
2022/01/11 09:55:24;;;;;;;106.80;98.77;;;2.40;99.90;;;;;;4437454;32;20136;-61
2022/01/11 09:57:51;;;;;;;101.33;94.27;;;2.50;99.90;;;;;;4437655;32;20522;-62
2022/01/11 10:00:18;;;;;;;107.23;99.60;;;2.40;99.90;;;;;;4437209;32;20136;-64
2022/01/11 10:02:49;;;;;;;111.87;103.90;;;2.30;99.90;;;;;;4437255;32;20466;-66
2022/01/11 10:05:18;;;;;;;118.20;110.13;;;2.30;99.90;;;;;;4437522;32;20136;-66
2022/01/11 10:07:48;;;;;;;122.17;113.57;;;2.20;99.90;;;;;;4436801;32;20136;-66
2022/01/11 10:10:21;;;;;;;109.70;102.23;;;2.20;99.90;;;;;;4436822;32;20144;-64
2022/01/11 10:12:50;;;;;;;107.93;100.63;;;2.30;99.90;;;;;;4438270;32;20165;-65
2022/01/11 10:15:27;;;;;;;112.87;104.67;;;2.50;99.90;;;;;;4436931;32;20136;-64
2022/01/11 10:17:54;;;;;;;120.33;112.20;;;2.60;99.90;;;;;;4436760;32;20170;-65
2022/01/11 10:20:23;;;;;;;124.30;116.17;;;2.70;99.90;;;;;;4436702;32;20143;-63
2022/01/11 10:22:54;;;;;;;126.73;118.70;;;2.80;99.90;;;;;;4438246;32;20131;-63
2022/01/11 10:25:45;;;;;;;122.50;114.67;;;3.00;99.90;;;;;;4437744;32;20135;-61
2022/01/11 10:28:12;;;;;;;105.07;97.97;;;3.00;99.90;;;;;;4436682;32;20132;-64
2022/01/11 10:30:41;;;;;;;110.60;103.27;;;3.10;99.90;;;;;;4437174;32;20127;-65
2022/01/11 10:33:10;;;;;;;124.60;116.37;;;3.20;99.90;;;;;;4436473;32;20170;-62
2022/01/11 10:35:42;;;;;;;142.23;133.70;;;3.30;99.90;;;;;;4437203;32;20210;-64
2022/01/11 10:38:13;;;;;;;124.70;116.30;;;3.40;99.90;;;;;;4436586;32;20179;-62
2022/01/11 10:40:43;;;;;;;133.30;125.33;;;3.50;99.90;;;;;;4436434;32;20146;-64
2022/01/11 10:43:12;;;;;;;128.27;120.00;;;3.50;99.90;;;;;;4436335;32;20480;-61
2022/01/11 10:45:41;;;;;;;123.33;115.23;;;3.60;99.90;;;;;;4436273;32;20151;-60
2022/01/11 10:48:13;;;;;;;126.67;118.43;;;3.70;99.90;;;;;;4436227;32;20454;-64
2022/01/11 10:50:42;;;;;;;126.87;119.20;;;3.60;99.90;;;;;;4437146;32;20139;-66
2022/01/11 10:53:13;;;;;;;120.20;112.93;;;3.70;99.90;;;;;;4437079;32;20145;-62
2022/01/11 10:55:41;;;;;;;133.77;125.77;;;3.80;99.90;;;;;;4435969;32;20173;-61
2022/01/11 10:58:11;;;;;;;135.00;126.73;;;3.80;99.90;;;;;;4437498;32;20157;-66
2022/01/11 11:00:40;;;;;;;136.27;128.67;;;3.90;99.90;;;;;;4436257;32;20139;-64
2022/01/11 11:03:10;;;;;;;150.23;141.50;;;4.00;99.90;;;;;;4439480;32;20555;-64
2022/01/11 11:05:38;;;;;;;132.73;123.57;;;4.10;99.90;;;;;;4443188;32;20491;-63
2022/01/11 11:08:09;;;;;;;134.27;126.20;;;4.20;99.90;;;;;;4451709;32;20154;-65
2022/01/11 11:10:47;;;;;;;140.57;132.27;;;4.20;99.90;;;;;;4452118;32;20165;-65
2022/01/11 11:13:28;;;;;;;130.67;123.27;;;4.30;99.90;;;;;;4451762;32;20135;-64
2022/01/11 11:15:56;;;;;;;135.40;127.63;;;4.40;99.90;;;;;;4451649;32;20170;-63
2022/01/11 11:18:27;;;;;;;141.27;133.07;;;4.50;99.90;;;;;;4451620;32;20142;-64
2022/01/11 11:20:55;;;;;;;134.83;126.90;;;4.50;99.90;;;;;;4451484;32;20152;-62
2022/01/11 11:23:24;;;;;;;140.60;132.70;;;4.50;99.90;;;;;;4451639;32;20507;-66
2022/01/11 11:25:51;;;;;;;142.67;134.93;;;4.50;99.90;;;;;;4452196;32;20462;-66
2022/01/11 11:28:21;;;;;;;145.57;137.17;;;4.50;99.90;;;;;;4452214;32;20131;-64
2022/01/11 11:30:54;;;;;;;143.60;135.63;;;4.40;99.90;;;;;;4451456;32;20139;-63
2022/01/11 11:33:21;;;;;;;147.73;139.87;;;4.30;99.90;;;;;;4452972;32;20134;-65
2022/01/11 11:35:51;;;;;;;156.63;148.33;;;4.40;99.90;;;;;;4451272;32;20138;-62
2022/01/11 11:38:21;;;;;;;164.20;155.53;;;4.30;99.90;;;;;;4455172;32;20134;-63
2022/01/11 11:40:51;;;;;;;145.13;137.37;;;4.30;99.90;;;;;;4454548;32;20157;-65
2022/01/11 11:43:18;;;;;;;140.07;132.47;;;4.30;99.90;;;;;;4454473;32;20150;-66
2022/01/11 11:45:45;;;;;;;164.47;155.73;;;4.20;99.90;;;;;;4454400;32;20134;-60
2022/01/11 11:48:19;;;;;;;138.27;130.83;;;4.20;99.90;;;;;;4454322;32;20462;-64
2022/01/11 11:50:52;;;;;;;142.57;134.73;;;4.20;99.90;;;;;;4454317;32;20581;-64
2022/01/11 11:53:30;;;;;;;150.53;142.63;;;4.10;99.90;;;;;;4454330;32;20229;-63
2022/01/11 11:56:21;;;;;;;142.47;135.00;;;4.20;99.90;;;;;;4455763;32;20575;-65
2022/01/11 11:58:52;;;;;;;141.13;133.60;;;4.20;99.90;;;;;;4455838;32;20137;-64
2022/01/11 12:01:42;;;;;;;150.90;142.63;;;4.10;99.90;;;;;;4454357;32;20571;-63
2022/01/11 12:04:16;;;;;;;142.07;134.47;;;4.10;99.90;;;;;;4455232;32;20208;-65
2022/01/11 12:06:46;;;;;;;165.13;156.70;;;4.00;99.90;;;;;;4454376;32;20217;-65
2022/01/11 12:09:16;;;;;;;146.13;137.70;;;4.00;99.90;;;;;;4454044;32;20149;-63
2022/01/11 12:11:49;;;;;;;152.67;144.87;;;4.10;99.90;;;;;;4454842;32;20139;-62
2022/01/11 12:14:33;;;;;;;151.10;142.97;;;4.10;99.90;;;;;;4453950;32;20134;-63
2022/01/11 12:17:24;;;;;;;147.13;139.57;;;4.10;99.90;;;;;;4453955;32;20243;-63
2022/01/11 12:19:59;;;;;;;144.17;136.87;;;4.20;99.90;;;;;;4453868;32;20135;-62
2022/01/11 12:22:33;;;;;;;149.73;142.30;;;4.10;99.90;;;;;;4453954;32;20153;-63
2022/01/11 12:25:05;;;;;;;147.40;139.77;;;4.20;99.90;;;;;;4455163;32;20146;-61
2022/01/11 12:27:59;;;;;;;134.17;127.33;;;4.20;99.90;;;;;;4453917;32;20154;-62
2022/01/11 12:30:31;;;;;;;123.47;116.83;;;4.20;99.90;;;;;;4455042;32;20462;-63
2022/01/11 12:33:11;;;;;;;157.03;149.20;;;4.20;99.90;;;;;;4453522;32;20457;-64